Eastman, Canada
Current Conditions -  °F | °C
As of 5:35 PM on Friday 24 Oct 2014 (Local Time) from KEFK Reporting Station
Overcast Overcast  
Wind Chill: 37°   Ceiling: 1700
Heat Index: 42°   Visibility: 10mi
Dew Point: 40°   Wind: 9mph
Humidity: 90%   Direction: 310°NW
Pressure: 29.8"   Gusts: NA
Location:  45.3°N, 72.32°W
Report Text: KEFK 242135Z AUTO 31008KT 10SM OVC017 06/04 A2980 RMK AO2 T00570042
Loading
Personal Weather Stations






























Interactive Weather Map
Tropical Storm Tracking
New forecast layout! Learn more

10-Day Weather Forecast

Advertisements
Track Severe Weather on mobile